Hico, West Virginia
Current Conditions -  °F | °C
As of 4:51 AM on Thursday 29 Jan 2015 (Local Time) from KBKW Reporting Station
Clear Clear  
Wind Chill: -7°   Ceiling: Unl
Heat Index: -2°   Visibility: 10mi
Dew Point: -11°   Wind: 10mph
Humidity: 51%   Direction: 140°SE
Pressure: 30.12"   Gusts: NA
Location:  38.12°N, 81.01°W
Report Text: KBKW 290951Z AUTO 14009KT 10SM CLR M02/M11 A3012 RMK AO2 SLP232 T10171106
Loading
Personal Weather Stations






























Interactive Weather Map New forecast layout! Learn more

10-Day Weather Forecast

Advertisements
Track Severe Weather on mobile